Main page
METAR-TAF:

METAR-TAF

Airports :

Custer Airport

Monroe, Michigan, United States

latitude: 41-56-24N, longitude: 083-26-05W, elevation: 617 ft

Current weather observation

The report was made 8 minutes ago, at 18:55 UTC
Wind 12 mph from the North/Northwest
Temperature 43°F
Humidity 65%
Pressure 30.22 in. Hg
Visibility: 10 miles
Overcast at a height of 2700 ft

METAR: KTTF 241855Z AUTO 33010KT 10SM OVC027 06/00 A3022 RMK AO2 T00631001

Time: 15:03 (19:03 UTC)


TAF: missing

Weather observations and forecasts of more than 4000 airports (METAR and TAF reports).

The available stations are represented by yellow and red dots on the map.

Hover mouse over dot to see the name of the station.

Then click to see weather observations and forecasts.

To change the map : click on the green buttons with a black cross to zoom in, on the green button with a dash to zoom out, or on the green arrows for adjacent maps.


METAR-TAF: